Time;durP1;ratioP1;P1;durP2;ratioP2;P2;SDS_P1;SDS_P2;PMS_P1;PMS_P2;Temp;Humidity;BMP_temperature;BMP_pressure;BME280_temperature;BME280_humidity;BME280_pressure;Samples;Min_cycle;Max_cycle;Signal;HPM_P1;HPM_P2
2022/11/06 00:01:44;;;;;;;1.37;1.27;;;;;;;17.05;44.91;94627.00;5108946;28;20852;-63
2022/11/06 00:04:12;;;;;;;3.87;3.50;;;;;;;17.37;44.54;94633.13;5108496;28;20448;-66
2022/11/06 00:06:47;;;;;;;2.03;1.37;;;;;;;17.46;44.22;94636.59;5101782;28;20437;-66
2022/11/06 00:09:17;;;;;;;4.23;2.47;;;;;;;17.55;44.04;94640.88;5096930;28;20538;-63
2022/11/06 00:11:45;;;;;;;1.73;1.63;;;;;;;17.59;44.36;94646.34;5092176;28;20444;-64
2022/11/06 00:14:12;;;;;;;1.67;1.57;;;;;;;17.61;44.19;94641.53;5098101;28;20852;-63
2022/11/06 00:16:40;;;;;;;11.13;2.80;;;;;;;17.68;44.75;94644.53;5113078;28;20871;-64
2022/11/06 00:19:07;;;;;;;2.47;2.30;;;;;;;17.93;43.78;94634.03;5104404;27;20478;-64
2022/11/06 00:21:35;;;;;;;2.07;1.80;;;;;;;17.80;44.05;94642.06;5112165;28;20467;-66
2022/11/06 00:24:04;;;;;;;3.37;2.10;;;;;;;16.98;45.75;94634.59;5112648;28;20447;-64
2022/11/06 00:26:33;;;;;;;2.00;1.47;;;;;;;17.20;45.43;94634.59;5098177;28;20447;-63
2022/11/06 00:29:01;;;;;;;0.70;0.70;;;;;;;16.90;45.70;94645.88;5112611;28;20440;-66
2022/11/06 00:31:30;;;;;;;2.53;2.00;;;;;;;16.30;47.02;94647.19;5097978;28;20441;-67
2022/11/06 00:33:59;;;;;;;1.40;1.30;;;;;;;16.74;45.44;94631.44;5112236;27;22794;-64
2022/11/06 00:36:31;;;;;;;2.87;2.03;;;;;;;17.23;44.62;94623.38;5111992;28;20531;-64
2022/11/06 00:38:59;;;;;;;4.57;2.63;;;;;;;17.31;44.54;94634.31;5105981;28;20893;-66
2022/11/06 00:41:26;;;;;;;2.83;2.50;;;;;;;17.44;44.38;94631.59;5112282;28;20942;-66
2022/11/06 00:43:58;;;;;;;5.27;2.03;;;;;;;17.40;44.76;94638.59;5112589;28;20444;-65
2022/11/06 00:46:26;;;;;;;2.03;1.87;;;;;;;16.90;45.59;94640.59;5112270;28;20489;-65
2022/11/06 00:48:54;;;;;;;1.27;1.27;;;;;;;17.16;44.94;94636.28;5112408;28;20532;-67
2022/11/06 00:51:32;;;;;;;2.30;2.10;;;;;;;17.20;44.53;94639.88;5100093;28;20453;-64
2022/11/06 00:54:01;;;;;;;9.03;1.50;;;;;;;17.23;45.14;94651.72;5108179;27;20570;-64
2022/11/06 00:56:29;;;;;;;3.87;2.50;;;;;;;17.09;45.14;94625.31;5112119;28;20926;-64
2022/11/06 00:58:58;;;;;;;6.77;3.27;;;;;;;17.18;44.23;94631.47;5097752;28;20449;-66
2022/11/06 01:01:29;;;;;;;2.73;1.23;;;;;;;16.99;44.32;94633.50;5112128;28;20791;-67
2022/11/06 01:04:16;;;;;;;0.80;0.80;;;;;;;16.84;44.88;94641.78;5111247;28;20444;-66
2022/11/06 01:06:47;;;;;;;1.70;1.57;;;;;;;17.09;44.71;94627.97;5101576;28;20441;-65
2022/11/06 01:09:17;;;;;;;1.77;1.67;;;;;;;16.95;44.77;94637.81;5110076;27;20931;-65
2022/11/06 01:11:50;;;;;;;4.70;3.83;;;;;;;16.87;44.85;94613.94;5101203;28;20503;-67
2022/11/06 01:14:41;;;;;;;1.50;1.37;;;;;;;17.02;45.05;94622.28;5106823;27;20857;-67
2022/11/06 01:17:08;;;;;;;1.10;1.10;;;;;;;17.15;44.61;94624.09;5102414;28;20438;-64
2022/11/06 01:19:35;;;;;;;1.60;1.30;;;;;;;17.24;44.33;94611.69;5096150;27;20524;-63
2022/11/06 01:22:02;;;;;;;2.07;1.40;;;;;;;17.19;44.31;94611.03;5101049;28;20448;-65
2022/11/06 01:24:30;;;;;;;1.23;1.20;;;;;;;17.04;44.73;94614.84;5111498;28;20468;-66
2022/11/06 01:26:57;;;;;;;1.60;1.50;;;;;;;16.78;44.80;94605.97;5103908;28;20511;-68
2022/11/06 01:29:44;;;;;;;3.17;2.87;;;;;;;17.10;44.58;94613.63;5106500;27;20436;-66
2022/11/06 01:32:11;;;;;;;2.83;2.50;;;;;;;17.20;44.46;94621.34;5102531;28;20884;-66
2022/11/06 01:34:38;;;;;;;0.70;0.70;;;;;;;17.16;44.68;94617.75;5103987;27;20555;-67
2022/11/06 01:37:05;;;;;;;1.30;1.20;;;;;;;17.14;44.93;94617.25;5089514;28;20524;-65
2022/11/06 01:39:37;;;;;;;9.13;2.60;;;;;;;17.04;44.92;94619.38;5095744;28;20436;-66
2022/11/06 01:42:04;;;;;;;2.87;2.67;;;;;;;17.09;44.54;94620.03;5104262;28;20529;-67
2022/11/06 01:44:34;;;;;;;0.87;0.87;;;;;;;17.18;44.82;94615.56;5094474;28;20927;-65
2022/11/06 01:47:04;;;;;;;1.23;1.13;;;;;;;17.07;45.43;94627.50;5106089;28;20476;-67
2022/11/06 01:49:37;;;;;;;2.13;2.03;;;;;;;16.70;45.92;94624.41;5093005;28;20437;-65
2022/11/06 01:52:07;;;;;;;1.60;1.50;;;;;;;16.98;45.09;94618.72;5093550;28;20437;-66
2022/11/06 01:54:38;;;;;;;0.67;0.67;;;;;;;16.95;45.42;94615.88;5110936;28;20533;-66
2022/11/06 01:57:06;;;;;;;1.00;1.00;;;;;;;17.16;45.08;94620.38;5096666;28;20817;-64
2022/11/06 01:59:37;;;;;;;8.20;1.23;;;;;;;16.85;45.53;94622.19;5090969;28;20560;-65
2022/11/06 02:02:04;;;;;;;0.20;0.20;;;;;;;16.97;45.79;94625.06;5090782;28;20833;-65
2022/11/06 02:04:36;;;;;;;3.00;2.17;;;;;;;16.74;46.45;94626.16;5110530;28;20844;-66
2022/11/06 02:07:04;;;;;;;3.70;2.50;;;;;;;17.13;45.42;94623.63;5098729;28;20449;-65
2022/11/06 02:09:32;;;;;;;0.70;0.70;;;;;;;16.71;45.55;94618.84;5094732;28;20435;-65
2022/11/06 02:12:16;;;;;;;2.33;1.47;;;;;;;16.83;46.03;94619.06;5110659;28;20452;-65
2022/11/06 02:14:52;;;;;;;0.97;0.73;;;;;;;17.01;45.38;94628.69;5096414;28;20480;-63
2022/11/06 02:17:30;;;;;;;1.33;1.30;;;;;;;17.07;45.02;94614.25;5098039;27;20502;-65
2022/11/06 02:20:18;;;;;;;0.90;0.90;;;;;;;16.71;45.25;94610.09;5090512;28;20437;-67
2022/11/06 02:23:12;;;;;;;0.27;0.27;;;;;;;17.10;45.11;94613.63;5091850;28;20448;-66
2022/11/06 02:25:52;;;;;;;5.57;1.90;;;;;;;17.34;44.57;94612.53;5111027;28;20448;-66
2022/11/06 02:28:22;;;;;;;3.00;1.13;;;;;;;17.13;44.50;94613.03;5105142;28;20445;-66
2022/11/06 02:30:52;;;;;;;0.83;0.60;;;;;;;17.16;44.51;94607.16;5101820;28;20542;-66
2022/11/06 02:33:28;;;;;;;1.80;1.30;;;;;;;17.11;44.75;94614.44;5106283;28;20479;-66
2022/11/06 02:36:04;;;;;;;1.47;1.20;;;;;;;16.97;45.24;94606.53;5102117;28;21210;-66
2022/11/06 02:38:37;;;;;;;2.67;1.40;;;;;;;17.11;44.73;94607.28;5105021;28;20445;-67
2022/11/06 02:41:19;;;;;;;0.40;0.40;;;;;;;17.50;43.59;94611.09;5090043;28;20441;-63
2022/11/06 02:43:50;;;;;;;1.50;1.20;;;;;;;17.63;43.84;94612.84;5096474;28;20444;-66
2022/11/06 02:46:24;;;;;;;0.57;0.57;;;;;;;17.54;44.32;94618.13;5096948;28;20461;-63
2022/11/06 02:48:57;;;;;;;9.60;2.23;;;;;;;17.58;43.91;94626.22;5117084;27;21014;-65
2022/11/06 02:51:29;;;;;;;1.03;1.03;;;;;;;17.21;44.59;94614.97;5089719;28;20943;-65
2022/11/06 02:54:01;;;;;;;2.00;1.20;;;;;;;17.33;44.20;94621.56;5105939;28;20456;-65
2022/11/06 02:56:36;;;;;;;0.77;0.77;;;;;;;17.31;44.78;94624.53;5110250;28;20429;-66
2022/11/06 02:59:22;;;;;;;0.60;0.60;;;;;;;17.58;44.26;94634.19;5095668;28;20445;-65
2022/11/06 03:02:07;;;;;;;1.03;0.70;;;;;;;17.46;43.98;94610.09;5097201;28;20445;-66
2022/11/06 03:04:46;;;;;;;1.27;1.17;;;;;;;17.49;44.17;94633.34;5103735;28;20488;-65
2022/11/06 03:07:33;;;;;;;1.03;0.93;;;;;;;17.69;43.41;94635.47;5103626;28;20504;-66
2022/11/06 03:10:00;;;;;;;0.93;0.93;;;;;;;17.75;43.49;94644.88;5089348;28;20471;-67
2022/11/06 03:12:32;;;;;;;0.37;0.30;;;;;;;17.69;43.43;94646.06;5104062;28;20547;-63
2022/11/06 03:15:07;;;;;;;0.87;0.87;;;;;;;17.82;43.24;94637.25;5097170;28;20919;-63
2022/11/06 03:18:01;;;;;;;2.30;1.13;;;;;;;17.58;44.06;94644.78;5095117;28;20445;-65
2022/11/06 03:20:36;;;;;;;2.13;1.27;;;;;;;17.29;44.54;94644.44;5089586;28;20449;-66
2022/11/06 03:23:13;;;;;;;1.53;1.20;;;;;;;17.52;44.36;94661.88;5088871;28;20520;-66
2022/11/06 03:25:47;;;;;;;0.87;0.87;;;;;;;17.37;44.17;94654.31;5089615;28;20440;-66
2022/11/06 03:28:29;;;;;;;0.77;0.77;;;;;;;17.38;44.65;94656.66;5103627;28;20444;-66
2022/11/06 03:31:06;;;;;;;1.70;1.60;;;;;;;17.50;44.23;94659.53;5101783;28;21030;-67
2022/11/06 03:33:43;;;;;;;0.60;0.60;;;;;;;17.25;44.47;94668.09;5095527;28;20440;-64
2022/11/06 03:36:31;;;;;;;2.10;1.30;;;;;;;17.32;44.62;94657.84;5095381;28;20515;-63
2022/11/06 03:39:02;;;;;;;0.80;0.80;;;;;;;17.20;44.65;94670.88;5098079;28;20440;-66
2022/11/06 03:41:44;;;;;;;1.13;1.03;;;;;;;17.08;45.05;94674.03;5093351;28;20436;-64
2022/11/06 03:44:16;;;;;;;0.10;0.10;;;;;;;17.18;44.93;94681.75;5099026;28;20444;-63
2022/11/06 03:46:49;;;;;;;0.70;0.70;;;;;;;17.18;44.72;94673.81;5106099;28;20447;-65
2022/11/06 03:49:22;;;;;;;0.70;0.67;;;;;;;17.27;44.95;94670.44;5088849;28;20448;-66
2022/11/06 03:51:56;;;;;;;0.97;0.93;;;;;;;17.35;44.50;94661.78;5090001;28;20881;-67
2022/11/06 03:54:31;;;;;;;0.90;0.67;;;;;;;17.29;44.49;94641.78;5094842;28;20820;-67
2022/11/06 03:57:12;;;;;;;1.80;1.23;;;;;;;17.36;44.88;94653.53;5096050;28;20958;-62
2022/11/06 03:59:45;;;;;;;0.57;0.20;;;;;;;17.29;44.75;94647.88;5089418;28;20445;-69
2022/11/06 04:02:14;;;;;;;0.60;0.60;;;;;;;17.31;45.18;94656.31;5087603;28;20449;-67
2022/11/06 04:04:51;;;;;;;0.20;0.20;;;;;;;17.21;46.00;94662.63;5095704;28;20886;-65
2022/11/06 04:07:25;;;;;;;0.20;0.20;;;;;;;17.09;46.80;94670.34;5094774;28;20445;-66
2022/11/06 04:15:39;;;;;;;4.33;1.90;;;;;;;17.12;47.42;94675.00;5109157;28;20487;-67
2022/11/06 04:18:16;;;;;;;1.17;0.70;;;;;;;17.40;46.95;94672.22;5109208;28;20442;-67
2022/11/06 04:27:13;;;;;;;0.23;0.23;;;;;;;17.07;49.06;94677.78;5088820;28;20433;-64
2022/11/06 04:29:49;;;;;;;0.40;0.40;;;;;;;17.01;49.35;94681.63;5103072;28;20809;-66
2022/11/06 04:32:28;;;;;;;0.20;0.20;;;;;;;17.16;49.00;94680.50;5098701;28;20966;-65
2022/11/06 04:35:21;;;;;;;1.50;0.90;;;;;;;17.02;49.57;94680.53;5105407;28;20485;-65
2022/11/06 04:38:03;;;;;;;0.37;0.37;;;;;;;17.16;49.58;94667.25;5080117;28;20974;-67
2022/11/06 04:41:11;;;;;;;0.20;0.20;;;;;;;17.02;49.57;94651.41;5096321;28;20955;-68
2022/11/06 04:44:18;;;;;;;0.60;0.60;;;;;;;16.95;50.30;94682.06;5078983;28;20440;-64
2022/11/06 04:46:52;;;;;;;0.23;0.23;;;;;;;16.99;50.62;94670.56;5099570;28;20447;-68
2022/11/06 04:49:21;;;;;;;0.70;0.70;;;;;;;17.15;49.90;94674.41;5098592;28;20436;-65
2022/11/06 04:51:48;;;;;;;0.20;0.20;;;;;;;16.92;50.77;94680.78;5091528;28;20506;-63
2022/11/06 04:54:15;;;;;;;2.33;1.33;;;;;;;17.03;50.33;94681.31;5106193;28;20510;-65
2022/11/06 04:56:42;;;;;;;1.03;1.03;;;;;;;17.00;50.91;94680.06;5103264;28;20524;-65
2022/11/06 04:59:16;;;;;;;0.07;0.07;;;;;;;17.03;50.64;94676.03;5112181;28;20448;-66
2022/11/06 05:01:45;;;;;;;0.50;0.50;;;;;;;17.01;51.40;94684.28;5112570;28;20503;-67
2022/11/06 05:04:12;;;;;;;0.27;0.27;;;;;;;17.11;50.79;94681.41;5112474;28;20447;-66
2022/11/06 05:06:40;;;;;;;1.10;1.10;;;;;;;17.18;50.95;94684.41;5112803;28;20535;-65
2022/11/06 05:09:07;;;;;;;8.47;1.30;;;;;;;17.21;50.47;94691.75;5110776;28;20439;-67
2022/11/06 05:11:33;;;;;;;0.63;0.63;;;;;;;17.02;51.32;94693.00;5091580;28;20870;-65
2022/11/06 05:14:00;;;;;;;0.00;0.00;;;;;;;17.33;50.73;94695.72;5105536;28;20993;-66
2022/11/06 05:16:27;;;;;;;0.80;0.70;;;;;;;17.37;50.23;94697.44;5112052;28;20516;-67
2022/11/06 05:18:54;;;;;;;0.77;0.73;;;;;;;17.40;50.09;94706.66;5112138;28;20442;-69
2022/11/06 05:24:07;;;;;;;0.97;0.87;;;;;;;17.20;51.10;94716.66;5104605;28;20535;-68
2022/11/06 05:26:34;;;;;;;0.80;0.80;;;;;;;17.26;50.93;94727.13;5106879;28;20520;-66
2022/11/06 05:29:01;;;;;;;0.70;0.70;;;;;;;17.04;51.59;94726.03;5103035;28;20842;-66
2022/11/06 05:31:27;;;;;;;0.33;0.33;;;;;;;17.34;50.70;94731.69;5097055;28;20443;-67
2022/11/06 05:33:54;;;;;;;0.40;0.33;;;;;;;17.33;50.96;94732.78;5111354;28;20433;-64
2022/11/06 05:36:21;;;;;;;1.17;1.07;;;;;;;17.20;51.30;94723.81;5111886;28;20464;-66
2022/11/06 05:38:48;;;;;;;0.57;0.57;;;;;;;17.60;50.50;94732.69;5112346;28;20511;-66
2022/11/06 05:41:15;;;;;;;0.30;0.30;;;;;;;17.59;50.05;94731.91;5101215;27;20453;-66
2022/11/06 05:43:42;;;;;;;0.70;0.47;;;;;;;17.67;50.06;94725.09;5097437;28;20432;-66
2022/11/06 05:46:09;;;;;;;0.20;0.20;;;;;;;17.42;50.50;94726.47;5099167;28;20913;-65
2022/11/06 05:48:56;;;;;;;0.77;0.67;;;;;;;17.51;50.21;94732.66;5097425;28;20531;-65
2022/11/06 05:51:23;;;;;;;0.30;0.30;;;;;;;17.68;50.01;94729.31;5097629;28;20544;-67
2022/11/06 05:53:50;;;;;;;0.80;0.80;;;;;;;17.64;49.80;94744.25;5106555;28;20535;-66
2022/11/06 05:56:17;;;;;;;0.40;0.40;;;;;;;17.79;49.50;94751.84;5103336;28;20488;-64
2022/11/06 05:58:44;;;;;;;0.43;0.43;;;;;;;17.83;49.54;94758.06;5104459;28;20819;-64
2022/11/06 06:01:12;;;;;;;0.30;0.30;;;;;;;17.85;49.59;94755.91;5111191;28;20448;-67
2022/11/06 06:03:38;;;;;;;1.07;1.07;;;;;;;17.74;49.89;94762.53;5097985;28;20480;-66
2022/11/06 06:06:05;;;;;;;1.67;0.60;;;;;;;17.75;49.72;94766.78;5109142;28;20931;-67
2022/11/06 06:08:32;;;;;;;0.83;0.60;;;;;;;17.61;50.44;94766.81;5100590;28;20590;-64
2022/11/06 06:10:59;;;;;;;9.23;1.13;;;;;;;17.73;49.73;94763.63;5107277;28;20432;-65
2022/11/06 06:13:26;;;;;;;1.10;1.00;;;;;;;17.92;49.43;94772.16;5110464;28;20515;-63
2022/11/06 06:15:53;;;;;;;0.20;0.20;;;;;;;17.84;49.68;94765.75;5110706;28;20483;-65
2022/11/06 06:18:20;;;;;;;0.40;0.40;;;;;;;17.84;49.78;94764.97;5110492;28;20807;-65
2022/11/06 06:20:47;;;;;;;0.20;0.20;;;;;;;17.82;49.18;94761.81;5110400;28;20440;-66
2022/11/06 06:23:14;;;;;;;1.60;0.83;;;;;;;17.68;50.11;94777.03;5104790;28;20437;-64
2022/11/06 06:25:40;;;;;;;0.40;0.40;;;;;;;17.86;49.67;94784.75;5101409;28;21021;-66
2022/11/06 06:28:07;;;;;;;0.50;0.50;;;;;;;17.76;50.19;94789.53;5110111;28;20428;-63
2022/11/06 06:30:34;;;;;;;3.57;1.93;;;;;;;18.01;49.83;94788.91;5110480;28;20440;-64
2022/11/06 06:33:05;;;;;;;0.63;0.63;;;;;;;17.92;50.42;94793.38;5107932;28;20440;-66
2022/11/06 06:35:32;;;;;;;0.97;0.97;;;;;;;17.98;50.21;94787.66;5099444;28;20472;-67
2022/11/06 06:37:59;;;;;;;1.03;0.97;;;;;;;17.72;50.82;94793.84;5110242;28;20470;-65
2022/11/06 06:40:26;;;;;;;0.60;0.60;;;;;;;17.75;50.97;94796.72;5103207;28;20473;-65
2022/11/06 06:42:57;;;;;;;0.10;0.10;;;;;;;17.62;51.35;94794.91;5103341;28;20837;-64
2022/11/06 06:45:24;;;;;;;1.43;0.83;;;;;;;17.66;51.21;94800.38;5109059;27;20497;-64
2022/11/06 06:47:51;;;;;;;1.17;1.00;;;;;;;17.41;51.75;94790.34;5096646;28;20460;-66
2022/11/06 06:50:18;;;;;;;1.23;1.13;;;;;;;17.73;52.68;94809.47;5095725;28;20904;-67
2022/11/06 06:52:46;;;;;;;0.90;0.90;;;;;;;17.88;51.18;94803.03;5095963;28;20452;-66
2022/11/06 06:55:13;;;;;;;0.60;0.57;;;;;;;18.27;50.60;94807.59;5109817;28;20456;-65
2022/11/06 06:57:40;;;;;;;0.47;0.47;;;;;;;18.27;50.79;94805.72;5109763;28;20475;-65
2022/11/06 07:00:07;;;;;;;0.57;0.57;;;;;;;18.38;49.74;94800.94;5098302;28;20439;-68
2022/11/06 07:02:34;;;;;;;1.53;1.43;;;;;;;18.32;50.29;94808.25;5106782;28;20516;-66
2022/11/06 07:05:01;;;;;;;61.13;2.67;;;;;;;18.15;50.27;94818.78;5109143;28;20933;-65
2022/11/06 07:07:28;;;;;;;0.70;0.70;;;;;;;18.44;49.71;94811.16;5093629;28;20433;-66
2022/11/06 07:09:54;;;;;;;6.50;1.43;;;;;;;18.50;49.74;94820.56;5097029;28;20476;-63
2022/11/06 07:12:21;;;;;;;15.10;5.70;;;;;;;18.56;49.66;94816.66;5109073;28;20444;-66
2022/11/06 07:14:48;;;;;;;8.33;7.63;;;;;;;18.66;49.29;94824.34;5094563;28;20531;-64
2022/11/06 07:17:15;;;;;;;2.77;2.57;;;;;;;18.55;49.17;94804.50;5109179;28;20539;-63
2022/11/06 07:19:42;;;;;;;0.47;0.47;;;;;;;18.85;48.70;94826.75;5095028;27;20543;-66
2022/11/06 07:22:09;;;;;;;0.20;0.20;;;;;;;18.59;49.16;94824.03;5107468;27;20442;-64
2022/11/06 07:24:36;;;;;;;0.53;0.53;;;;;;;18.71;48.75;94832.16;5112842;28;20467;-67
2022/11/06 07:27:03;;;;;;;1.17;1.13;;;;;;;18.41;49.93;94821.56;5110411;27;20436;-64
2022/11/06 07:29:30;;;;;;;0.37;0.37;;;;;;;18.65;49.57;94832.63;5101768;28;20472;-66
2022/11/06 07:31:57;;;;;;;2.27;1.70;;;;;;;18.24;49.90;94832.88;5098922;27;20539;-66
2022/11/06 07:34:24;;;;;;;0.77;0.77;;;;;;;18.33;50.43;94836.34;5103479;28;20455;-64
2022/11/06 07:36:50;;;;;;;0.87;0.87;;;;;;;18.38;50.06;94843.38;5099517;28;20563;-63
2022/11/06 07:39:17;;;;;;;2.87;2.67;;;;;;;18.56;49.97;94832.56;5092332;28;20893;-67
2022/11/06 07:41:44;;;;;;;5.20;4.80;;;;;;;18.75;49.96;94835.78;5108312;28;20440;-66
2022/11/06 07:44:11;;;;;;;1.27;1.23;;;;;;;18.52;49.96;94839.56;5093878;28;21010;-63
2022/11/06 07:46:38;;;;;;;1.23;1.13;;;;;;;18.62;49.70;94839.31;5108364;28;20444;-64
2022/11/06 07:49:05;;;;;;;1.73;1.63;;;;;;;18.78;49.50;94842.31;5106562;28;20534;-63
2022/11/06 07:51:32;;;;;;;0.20;0.20;;;;;;;19.03;48.78;94845.06;5093366;28;20444;-65
2022/11/06 07:53:59;;;;;;;1.60;1.50;;;;;;;18.93;48.49;94850.69;5109025;28;20506;-64
2022/11/06 07:56:25;;;;;;;1.60;0.77;;;;;;;18.96;48.57;94844.72;5103783;28;20464;-63
2022/11/06 07:58:52;;;;;;;1.80;0.93;;;;;;;18.71;48.97;94848.09;5107623;28;20436;-66
2022/11/06 08:01:19;;;;;;;0.93;0.93;;;;;;;18.88;48.67;94850.03;5090936;28;20433;-64
2022/11/06 08:03:46;;;;;;;1.23;1.13;;;;;;;18.76;48.78;94850.59;5108772;28;20432;-65
2022/11/06 08:06:13;;;;;;;1.53;1.43;;;;;;;18.84;48.73;94852.53;5104268;28;20446;-64
2022/11/06 08:08:40;;;;;;;0.80;0.80;;;;;;;18.59;49.49;94858.53;5108431;28;20467;-63
2022/11/06 08:11:09;;;;;;;2.40;1.60;;;;;;;19.05;48.51;94853.50;5094281;28;20440;-66
2022/11/06 08:13:37;;;;;;;0.37;0.30;;;;;;;18.97;48.47;94856.94;5089860;28;20524;-64
2022/11/06 08:16:06;;;;;;;0.43;0.43;;;;;;;18.91;49.37;94863.47;5099076;28;20484;-64
2022/11/06 08:18:33;;;;;;;1.53;1.43;;;;;;;18.52;49.82;94868.00;5088517;28;20464;-64
2022/11/06 08:21:01;;;;;;;0.67;0.67;;;;;;;18.94;48.88;94870.06;5097660;28;20463;-64
2022/11/06 08:23:28;;;;;;;0.67;0.67;;;;;;;18.52;49.87;94868.75;5095611;28;20531;-65
2022/11/06 08:25:58;;;;;;;2.20;1.87;;;;;;;18.30;51.60;94882.06;5097395;28;20437;-63
2022/11/06 08:28:25;;;;;;;2.77;1.63;;;;;;;18.29;51.84;94880.47;5099882;28;20441;-65
2022/11/06 08:30:53;;;;;;;1.80;1.70;;;;;;;18.29;52.59;94887.66;5091928;28;20447;-65
2022/11/06 08:33:21;;;;;;;1.77;0.63;;;;;;;18.28;53.71;94891.41;5104640;28;20441;-63
2022/11/06 08:35:48;;;;;;;0.87;0.87;;;;;;;17.77;55.89;94891.81;5103491;28;20505;-62
2022/11/06 08:38:15;;;;;;;1.03;1.03;;;;;;;17.88;55.90;94882.56;5112042;28;20454;-65
2022/11/06 08:40:43;;;;;;;0.83;0.77;;;;;;;17.74;55.94;94889.75;5101978;27;20480;-64
2022/11/06 08:43:15;;;;;;;0.53;0.53;;;;;;;18.17;56.95;94891.63;5108250;27;20451;-63
2022/11/06 08:45:42;;;;;;;6.90;4.67;;;;;;;18.16;55.97;94894.59;5112492;28;20887;-63
2022/11/06 08:48:10;;;;;;;8.83;4.03;;;;;;;18.08;56.57;94893.44;5110843;27;20515;-63
2022/11/06 08:50:38;;;;;;;1.40;1.30;;;;;;;18.28;56.09;94902.81;5093615;28;20540;-64
2022/11/06 08:53:07;;;;;;;0.87;0.87;;;;;;;18.59;55.39;94903.63;5106516;28;20543;-63
2022/11/06 08:55:37;;;;;;;0.33;0.33;;;;;;;18.72;55.05;94905.38;5095969;28;21251;-63
2022/11/06 08:58:05;;;;;;;0.93;0.90;;;;;;;18.68;55.03;94908.97;5105975;27;20523;-64
2022/11/06 09:00:33;;;;;;;0.33;0.33;;;;;;;18.59;55.44;94911.59;5102160;28;20532;-63
2022/11/06 09:03:06;;;;;;;0.77;0.77;;;;;;;18.91;54.54;94908.59;5104563;27;20437;-63
2022/11/06 09:05:33;;;;;;;0.63;0.63;;;;;;;18.65;55.84;94910.34;5089682;28;20510;-64
2022/11/06 09:08:00;;;;;;;1.60;0.70;;;;;;;18.47;55.57;94916.66;5098376;27;20472;-64
2022/11/06 09:10:27;;;;;;;0.73;0.73;;;;;;;18.29;56.72;94917.63;5091020;28;20875;-64
2022/11/06 09:12:57;;;;;;;0.73;0.73;;;;;;;18.59;55.75;94914.25;5113642;27;20440;-64
2022/11/06 09:15:24;;;;;;;0.77;0.70;;;;;;;18.70;55.49;94920.84;5110236;28;20993;-64
2022/11/06 09:17:53;;;;;;;10.07;7.20;;;;;;;18.44;56.07;94903.22;5111376;27;20436;-66
2022/11/06 09:20:21;;;;;;;24.57;17.40;;;;;;;18.50;56.66;94918.72;5111161;28;20491;-63
2022/11/06 09:22:48;;;;;;;2.60;2.40;;;;;;;18.48;56.20;94917.44;5100094;27;20448;-62
2022/11/06 09:25:16;;;;;;;0.87;0.87;;;;;;;18.30;55.91;94918.41;5089563;28;20540;-60
2022/11/06 09:27:48;;;;;;;1.40;1.27;;;;;;;18.35;55.86;94908.47;5101789;27;20445;-63
2022/11/06 09:30:23;;;;;;;9.63;1.60;;;;;;;18.30;56.50;94910.44;5100974;28;20527;-64
2022/11/06 09:32:52;;;;;;;0.93;0.93;;;;;;;18.36;56.25;94915.31;5102537;28;20437;-64
2022/11/06 09:35:20;;;;;;;9.00;1.13;;;;;;;18.48;56.26;94912.94;5099205;28;20468;-64
2022/11/06 09:37:48;;;;;;;1.60;1.33;;;;;;;18.16;56.66;94915.81;5100762;28;20491;-67
2022/11/06 09:40:42;;;;;;;2.93;2.07;;;;;;;18.11;56.59;94918.59;5096034;28;20472;-66
2022/11/06 09:43:12;;;;;;;3.43;3.13;;;;;;;18.32;55.74;94911.69;5102534;27;20445;-64
2022/11/06 09:45:40;;;;;;;0.87;0.87;;;;;;;17.72;56.58;94913.91;5097540;28;20797;-63
2022/11/06 09:48:09;;;;;;;0.37;0.37;;;;;;;18.21;55.80;94923.63;5101681;28;20492;-65
2022/11/06 09:50:43;;;;;;;0.40;0.40;;;;;;;18.42;56.04;94919.44;5098736;28;20438;-65
2022/11/06 09:53:35;;;;;;;0.20;0.20;;;;;;;18.23;56.08;94921.47;5102379;27;20942;-64
2022/11/06 09:56:05;;;;;;;0.30;0.30;;;;;;;18.35;55.84;94911.09;5110092;28;20468;-65
2022/11/06 09:58:37;;;;;;;0.20;0.20;;;;;;;18.43;55.80;94920.25;5098058;28;20449;-63
2022/11/06 10:01:18;;;;;;;0.63;0.63;;;;;;;18.79;54.41;94916.38;5089569;28;20449;-63
2022/11/06 10:03:58;;;;;;;1.17;0.93;;;;;;;18.87;54.60;94906.84;5107407;27;20435;-63
2022/11/06 10:06:27;;;;;;;0.87;0.67;;;;;;;18.85;54.49;94912.47;5097010;28;20910;-64
2022/11/06 10:09:01;;;;;;;0.57;0.57;;;;;;;19.08;54.31;94902.59;5110625;28;20494;-65
2022/11/06 10:12:06;;;;;;;0.10;0.10;;;;;;;18.94;54.50;94908.00;5110179;28;20483;-62
2022/11/06 10:14:52;;;;;;;0.70;0.60;;;;;;;19.00;54.42;94903.31;5093780;28;20442;-64
2022/11/06 10:17:41;;;;;;;0.70;0.70;;;;;;;18.90;54.64;94906.25;5112327;27;21068;-66
2022/11/06 10:20:17;;;;;;;0.20;0.20;;;;;;;19.23;53.61;94912.78;5089728;28;20438;-69
2022/11/06 10:23:03;;;;;;;2.47;1.33;;;;;;;19.40;54.00;94902.22;5106248;28;20440;-68
2022/11/06 10:25:42;;;;;;;6.07;0.90;;;;;;;19.46;53.34;94903.63;5110249;28;20448;-66
2022/11/06 10:28:45;;;;;;;0.23;0.23;;;;;;;19.25;53.65;94905.25;5109418;27;20852;-65
2022/11/06 10:31:59;;;;;;;0.40;0.40;;;;;;;19.23;54.12;94907.47;5095083;28;20441;-67
2022/11/06 10:34:38;;;;;;;9.13;1.23;;;;;;;19.27;53.70;94907.63;5070649;28;20452;-66
2022/11/06 10:37:14;;;;;;;0.63;0.63;;;;;;;19.14;53.64;94904.78;5089353;27;20475;-67
2022/11/06 10:39:41;;;;;;;0.10;0.10;;;;;;;19.40;52.98;94914.72;5109447;28;20493;-69
2022/11/06 10:42:23;;;;;;;0.30;0.30;;;;;;;18.94;53.63;94905.34;5102881;28;20437;-63
2022/11/06 10:44:59;;;;;;;0.30;0.30;;;;;;;18.75;53.95;94902.16;5119698;27;20498;-68
2022/11/06 10:47:31;;;;;;;1.17;1.17;;;;;;;18.75;54.00;94912.75;5109483;28;21073;-62
2022/11/06 10:50:01;;;;;;;4.07;3.77;;;;;;;19.42;53.71;94904.56;5093983;28;20441;-60
2022/11/06 10:52:46;;;;;;;14.17;9.73;;;;;;;19.48;53.67;94913.97;5091061;28;20461;-61
2022/11/06 10:55:34;;;;;;;3.87;2.73;;;;;;;19.57;53.58;94901.47;5096398;27;20453;-66
2022/11/06 10:58:04;;;;;;;0.77;0.77;;;;;;;19.43;54.42;94906.94;5097348;27;20500;-67
2022/11/06 11:00:33;;;;;;;0.87;0.87;;;;;;;19.37;54.55;94908.16;5094833;27;20480;-62
2022/11/06 11:03:18;;;;;;;0.60;0.60;;;;;;;19.45;54.82;94909.28;5109015;28;20444;-63
2022/11/06 11:05:45;;;;;;;0.80;0.60;;;;;;;19.37;54.60;94907.38;5109065;28;20448;-65
2022/11/06 11:08:31;;;;;;;0.13;0.13;;;;;;;19.51;54.79;94919.44;5102045;28;20455;-64
2022/11/06 11:11:13;;;;;;;0.70;0.70;;;;;;;19.54;54.75;94918.03;5106339;28;20864;-62
2022/11/06 11:14:00;;;;;;;0.67;0.67;;;;;;;19.54;55.02;94913.50;5109283;28;20536;-64
2022/11/06 11:16:47;;;;;;;1.37;0.90;;;;;;;19.46;54.76;94916.94;5102289;28;21002;-66
2022/11/06 11:19:26;;;;;;;0.20;0.20;;;;;;;19.16;55.30;94907.91;5100567;28;20451;-65
2022/11/06 11:21:58;;;;;;;0.50;0.50;;;;;;;18.80;56.20;94909.97;5109169;28;20444;-62
2022/11/06 11:24:26;;;;;;;0.13;0.13;;;;;;;19.28;54.95;94904.66;5109150;28;20452;-63
2022/11/06 11:26:59;;;;;;;0.93;0.93;;;;;;;19.28;55.56;94911.84;5109106;28;20523;-63
2022/11/06 11:29:44;;;;;;;0.10;0.10;;;;;;;19.36;55.23;94900.50;5116017;27;20538;-63
2022/11/06 11:32:14;;;;;;;4.40;2.87;;;;;;;19.06;56.20;94904.75;5112815;27;20435;-60
2022/11/06 11:34:48;;;;;;;10.87;6.40;;;;;;;19.46;55.08;94900.19;5109159;28;20440;-61
2022/11/06 11:37:30;;;;;;;1.50;1.07;;;;;;;19.34;55.21;94892.06;5099499;28;20568;-60
2022/11/06 11:40:22;;;;;;;1.20;1.10;;;;;;;19.34;54.10;94897.38;5103328;28;20851;-61
2022/11/06 11:42:49;;;;;;;0.30;0.30;;;;;;;19.54;53.36;94894.13;5091212;28;20439;-63
2022/11/06 11:45:20;;;;;;;1.50;1.40;;;;;;;19.71;52.93;94894.13;5103809;28;20520;-65
2022/11/06 11:47:50;;;;;;;2.10;1.80;;;;;;;19.39;54.13;94894.56;5090670;28;20504;-65
2022/11/06 11:50:28;;;;;;;0.93;0.93;;;;;;;19.41;54.23;94906.44;5090060;28;20847;-63
2022/11/06 11:53:19;;;;;;;0.10;0.10;;;;;;;19.75;52.55;94892.41;5091589;27;20982;-63
2022/11/06 11:55:49;;;;;;;1.00;1.00;;;;;;;19.67;52.79;94893.19;5108630;28;20511;-65
2022/11/06 11:58:26;;;;;;;0.70;0.70;;;;;;;19.34;53.88;94903.47;5109371;28;20511;-62
2022/11/06 12:00:59;;;;;;;0.40;0.40;;;;;;;19.34;52.95;94894.72;5108954;28;20988;-63
2022/11/06 12:03:31;;;;;;;1.37;1.27;;;;;;;19.45;53.06;94890.66;5124694;27;20802;-64
2022/11/06 12:06:08;;;;;;;0.20;0.20;;;;;;;19.43;52.93;94876.91;5122085;27;20428;-67
2022/11/06 12:08:38;;;;;;;0.63;0.63;;;;;;;19.41;53.20;94898.47;5116839;27;20898;-66
2022/11/06 12:11:06;;;;;;;0.20;0.20;;;;;;;19.33;52.92;94895.78;5113110;28;20518;-62
2022/11/06 12:13:33;;;;;;;0.40;0.40;;;;;;;19.33;53.18;94890.47;5113038;28;20947;-63